createdAt,value
2018-10-06T00:00:36.960Z,10.83
2018-10-06T00:01:37.018Z,10.84
2018-10-06T00:02:37.080Z,10.80
2018-10-06T00:03:37.135Z,10.84
2018-10-06T00:04:37.193Z,10.84
2018-10-06T00:05:37.251Z,10.75
2018-10-06T00:06:37.311Z,10.70
2018-10-06T00:07:37.369Z,10.84
2018-10-06T00:08:37.426Z,10.70
2018-10-06T00:09:37.485Z,10.58
2018-10-06T00:10:37.544Z,10.51
2018-10-06T00:11:37.603Z,10.44
2018-10-06T00:12:37.661Z,10.51
2018-10-06T00:13:37.720Z,10.52
2018-10-06T00:14:37.779Z,10.57
2018-10-06T00:15:37.837Z,10.54
2018-10-06T00:16:37.894Z,10.58
2018-10-06T00:17:37.952Z,10.58
2018-10-06T00:18:38.012Z,10.55
2018-10-06T00:19:38.070Z,10.65
2018-10-06T00:20:38.127Z,10.69
2018-10-06T00:21:38.185Z,10.73
2018-10-06T00:22:38.245Z,10.63
2018-10-06T00:23:38.303Z,10.49
2018-10-06T00:24:38.362Z,10.52
2018-10-06T00:25:38.418Z,10.52
2018-10-06T00:26:38.481Z,10.57
2018-10-06T00:27:38.536Z,10.65
2018-10-06T00:28:38.594Z,10.47
2018-10-06T00:29:38.654Z,10.26
2018-10-06T00:30:38.711Z,10.35
2018-10-06T00:31:38.770Z,10.38
2018-10-06T00:32:38.829Z,10.44
2018-10-06T00:33:38.887Z,10.32
2018-10-06T00:34:38.945Z,10.36
2018-10-06T00:35:39.003Z,10.35
2018-10-06T00:36:39.060Z,10.32
2018-10-06T00:37:39.119Z,10.32
2018-10-06T00:38:39.177Z,10.39
2018-10-06T00:39:39.236Z,10.32
2018-10-06T00:40:39.294Z,10.31
2018-10-06T00:41:39.352Z,10.36
2018-10-06T00:42:39.410Z,10.28
2018-10-06T00:43:39.470Z,10.31
2018-10-06T00:44:39.527Z,10.20
2018-10-06T00:45:39.585Z,10.32
2018-10-06T00:46:39.644Z,10.35
2018-10-06T00:47:39.703Z,10.22
2018-10-06T00:48:39.760Z,10.31
2018-10-06T00:49:39.817Z,10.29
2018-10-06T00:50:39.875Z,10.26
2018-10-06T00:51:39.936Z,10.26
2018-10-06T00:52:39.993Z,10.20
2018-10-06T00:53:40.050Z,10.07
2018-10-06T00:54:40.109Z,10.11
2018-10-06T00:55:40.168Z,10.09
2018-10-06T00:56:40.229Z,10.07
2018-10-06T00:57:40.282Z,10.11
2018-10-06T00:58:40.342Z,10.04
2018-10-06T00:59:40.404Z,10.10
2018-10-06T01:00:40.457Z,10.04
2018-10-06T01:01:40.518Z,10.09
2018-10-06T01:02:40.575Z,10.04
2018-10-06T01:03:40.633Z,10.07
2018-10-06T01:04:40.692Z,10.07
2018-10-06T01:05:40.749Z,10.07
2018-10-06T01:06:40.806Z,10.25
2018-10-06T01:07:40.865Z,10.17
2018-10-06T01:08:40.923Z,10.35
2018-10-06T01:09:40.982Z,10.36
2018-10-06T01:10:41.043Z,10.35
2018-10-06T01:11:41.103Z,10.22
2018-10-06T01:12:41.155Z,10.09
2018-10-06T01:13:41.214Z,10.04
2018-10-06T01:14:41.272Z,10.09
2018-10-06T01:15:41.334Z,10.07
2018-10-06T01:16:41.387Z,10.06
2018-10-06T01:17:41.447Z,9.95
2018-10-06T01:18:41.505Z,9.91
2018-10-06T01:19:41.565Z,9.86
2018-10-06T01:20:41.619Z,9.77
2018-10-06T01:21:41.680Z,9.80
2018-10-06T01:22:41.737Z,9.96
2018-10-06T01:23:41.796Z,10.06
2018-10-06T01:24:41.852Z,10.04
2018-10-06T01:25:41.912Z,10.13
2018-10-06T01:26:41.970Z,9.99
2018-10-06T01:27:42.028Z,10.07
2018-10-06T01:28:42.086Z,10.01
2018-10-06T01:29:42.146Z,9.92
2018-10-06T01:30:42.203Z,10.01
2018-10-06T01:31:42.264Z,9.98
2018-10-06T01:32:42.318Z,9.93
2018-10-06T01:33:42.377Z,9.89
2018-10-06T01:34:42.437Z,9.98
2018-10-06T01:35:42.493Z,9.96
2018-10-06T01:36:42.551Z,9.95
2018-10-06T01:37:42.610Z,9.83
2018-10-06T01:38:42.667Z,9.71
2018-10-06T01:39:42.733Z,9.81
2018-10-06T01:40:42.786Z,9.80
2018-10-06T01:41:42.840Z,9.98
2018-10-06T01:42:42.900Z,9.98
2018-10-06T01:43:42.958Z,9.95
2018-10-06T01:44:43.021Z,9.95
2018-10-06T01:45:43.074Z,9.95
2018-10-06T01:46:43.132Z,9.81
2018-10-06T01:47:43.190Z,9.80
2018-10-06T01:48:43.248Z,9.78
2018-10-06T01:49:43.363Z,9.86
2018-10-06T01:50:43.365Z,9.73
2018-10-06T01:51:43.423Z,9.73
2018-10-06T01:52:43.480Z,9.63
2018-10-06T01:53:43.539Z,9.75
2018-10-06T01:54:43.596Z,9.71
2018-10-06T01:55:43.655Z,9.60
2018-10-06T01:56:43.713Z,9.73
2018-10-06T01:57:43.770Z,9.74
2018-10-06T01:58:43.829Z,9.70
2018-10-06T01:59:43.887Z,9.77
2018-10-06T02:00:43.944Z,10.02
2018-10-06T02:01:44.002Z,9.95
2018-10-06T02:02:44.061Z,9.99
2018-10-06T02:03:44.121Z,9.98
2018-10-06T02:04:44.176Z,10.06
2018-10-06T02:05:44.236Z,10.16
2018-10-06T02:06:44.293Z,10.04
2018-10-06T02:07:44.351Z,9.95
2018-10-06T02:08:44.408Z,9.98
2018-10-06T02:09:44.470Z,10.04
2018-10-06T02:10:44.525Z,10.09
2018-10-06T02:11:44.584Z,10.09
2018-10-06T02:12:44.641Z,9.93
2018-10-06T02:13:44.700Z,9.86
2018-10-06T02:14:44.758Z,9.96
2018-10-06T02:15:44.816Z,9.92
2018-10-06T02:16:44.878Z,10.01
2018-10-06T02:17:44.932Z,10.02
2018-10-06T02:18:44.992Z,9.95
2018-10-06T02:19:45.048Z,10.10
2018-10-06T02:20:45.106Z,10.17
2018-10-06T02:21:45.165Z,10.02
2018-10-06T02:22:45.223Z,10.17
2018-10-06T02:23:45.281Z,10.13
2018-10-06T02:24:45.338Z,10.14
2018-10-06T02:25:45.397Z,10.07
2018-10-06T02:26:45.459Z,10.02
2018-10-06T02:27:45.515Z,10.07
2018-10-06T02:28:45.572Z,10.18
2018-10-06T02:29:45.631Z,10.17
2018-10-06T02:30:45.689Z,10.07
2018-10-06T02:31:45.748Z,9.91
2018-10-06T02:32:46.055Z,9.88
2018-10-06T02:33:45.864Z,9.83
2018-10-06T02:34:45.920Z,9.91
2018-10-06T02:35:45.981Z,10.04
2018-10-06T02:36:46.053Z,10.09
2018-10-06T02:37:46.246Z,10.16
2018-10-06T02:38:46.154Z,10.09
2018-10-06T02:39:46.212Z,10.10
2018-10-06T02:40:46.270Z,10.07
2018-10-06T02:41:46.329Z,10.01
2018-10-06T02:42:46.387Z,9.96
2018-10-06T02:43:46.446Z,9.98
2018-10-06T02:44:46.504Z,9.98
2018-10-06T02:45:46.561Z,9.89
2018-10-06T02:46:46.620Z,9.89
2018-10-06T02:47:46.775Z,10.02
2018-10-06T02:48:46.774Z,9.93
2018-10-06T02:49:47.204Z,9.88
2018-10-06T02:50:46.892Z,9.93
2018-10-06T02:51:47.306Z,9.93
2018-10-06T02:52:47.314Z,9.98
2018-10-06T02:53:47.030Z,9.96
2018-10-06T02:54:47.086Z,9.98
2018-10-06T02:55:47.151Z,10.04
2018-10-06T02:56:47.247Z,10.04
2018-10-06T02:57:47.261Z,9.93
2018-10-06T02:58:47.320Z,9.99
2018-10-06T02:59:47.775Z,10.01
2018-10-06T03:00:47.435Z,9.98
2018-10-06T03:01:47.897Z,9.85
2018-10-06T03:02:47.599Z,9.78
2018-10-06T03:03:47.716Z,9.78
2018-10-06T03:04:48.420Z,9.99
2018-10-06T03:05:48.163Z,9.95
2018-10-06T03:06:47.789Z,9.96
2018-10-06T03:07:47.895Z,10.01
2018-10-06T03:08:47.902Z,10.10
2018-10-06T03:09:47.964Z,10.17
2018-10-06T03:10:48.019Z,10.22
2018-10-06T03:11:48.077Z,10.18
2018-10-06T03:12:48.136Z,10.07
2018-10-06T03:13:48.443Z,10.07
2018-10-06T03:14:48.252Z,10.09
2018-10-06T03:15:48.311Z,10.09
2018-10-06T03:16:48.378Z,9.91
2018-10-06T03:17:48.436Z,9.92
2018-10-06T03:18:48.485Z,9.85
2018-10-06T03:19:48.544Z,9.70
2018-10-06T03:20:48.601Z,9.70
2018-10-06T03:21:48.660Z,9.73
2018-10-06T03:22:48.720Z,9.71
2018-10-06T03:23:48.777Z,9.71
2018-10-06T03:24:48.834Z,9.71
2018-10-06T03:25:48.902Z,9.67
2018-10-06T03:26:48.952Z,9.60
2018-10-06T03:27:49.009Z,9.56
2018-10-06T03:28:49.072Z,9.71
2018-10-06T03:29:49.128Z,9.65
2018-10-06T03:30:49.186Z,9.65
2018-10-06T03:31:49.251Z,9.78
2018-10-06T03:32:49.303Z,9.92
2018-10-06T03:33:49.366Z,9.98
2018-10-06T03:34:49.418Z,9.96
2018-10-06T03:35:49.479Z,9.93
2018-10-06T03:36:49.535Z,9.68
2018-10-06T03:37:49.592Z,9.68
2018-10-06T03:38:49.653Z,9.71
2018-10-06T03:39:49.712Z,9.65
2018-10-06T03:40:49.767Z,9.68
2018-10-06T03:41:49.824Z,9.71
2018-10-06T03:42:49.887Z,9.71
2018-10-06T03:43:49.942Z,9.63
2018-10-06T03:44:50.028Z,9.63
2018-10-06T03:45:50.063Z,9.67
2018-10-06T03:46:50.117Z,9.63
2018-10-06T03:47:50.195Z,9.63
2018-10-06T03:48:50.234Z,9.60
2018-10-06T03:49:50.292Z,9.65
2018-10-06T03:50:50.351Z,9.65
2018-10-06T03:51:50.408Z,9.71
2018-10-06T03:52:50.467Z,9.67
2018-10-06T03:53:50.575Z,9.71
2018-10-06T03:54:50.585Z,9.62
2018-10-06T03:55:50.642Z,9.71
2018-10-06T03:56:50.701Z,9.67
2018-10-06T03:57:50.759Z,9.68
2018-10-06T03:58:50.818Z,9.75
2018-10-06T03:59:50.875Z,9.80
2018-10-06T04:00:50.933Z,9.74
2018-10-06T04:01:50.991Z,9.73
2018-10-06T04:02:51.050Z,9.58
2018-10-06T04:03:51.108Z,9.70
2018-10-06T04:04:51.168Z,9.65
2018-10-06T04:05:51.225Z,9.62
2018-10-06T04:06:51.284Z,9.52
2018-10-06T04:07:51.341Z,9.45
2018-10-06T04:08:51.398Z,9.49
2018-10-06T04:09:51.460Z,9.55
2018-10-06T04:10:51.515Z,9.45
2018-10-06T04:11:51.573Z,9.53
2018-10-06T04:12:51.631Z,9.40
2018-10-06T04:13:51.696Z,9.30
2018-10-06T04:14:51.748Z,9.38
2018-10-06T04:15:51.808Z,9.50
2018-10-06T04:16:51.864Z,9.49
2018-10-06T04:17:51.940Z,9.67
2018-10-06T04:18:51.981Z,9.65
2018-10-06T04:19:52.042Z,9.70
2018-10-06T04:20:52.097Z,9.73
2018-10-06T04:21:52.181Z,9.73
2018-10-06T04:22:52.216Z,9.73
2018-10-06T04:23:52.603Z,9.71
2018-10-06T04:24:52.330Z,9.73
2018-10-06T04:25:52.389Z,9.75
2018-10-06T04:26:52.449Z,9.59
2018-10-06T04:27:52.505Z,9.68
2018-10-06T04:28:52.563Z,9.68
2018-10-06T04:29:52.620Z,9.50
2018-10-06T04:30:52.679Z,9.40
2018-10-06T04:31:52.737Z,9.45
2018-10-06T04:32:52.795Z,9.34
2018-10-06T04:33:52.854Z,9.41
2018-10-06T04:34:52.920Z,9.38
2018-10-06T04:35:52.971Z,9.38
2018-10-06T04:36:53.029Z,9.35
2018-10-06T04:37:53.087Z,9.38
2018-10-06T04:38:53.144Z,9.27
2018-10-06T04:39:53.206Z,9.34
2018-10-06T04:40:53.260Z,9.38
2018-10-06T04:41:53.319Z,9.42
2018-10-06T04:42:53.378Z,9.35
2018-10-06T04:43:53.455Z,9.32
2018-10-06T04:44:53.493Z,9.32
2018-10-06T04:45:53.551Z,9.32
2018-10-06T04:46:53.636Z,9.30
2018-10-06T04:47:53.669Z,9.31
2018-10-06T04:48:53.724Z,9.34
2018-10-06T04:49:53.783Z,9.32
2018-10-06T04:50:53.861Z,9.38
2018-10-06T04:51:53.900Z,9.41
2018-10-06T04:52:53.959Z,9.41
2018-10-06T04:53:54.016Z,9.53
2018-10-06T04:54:54.074Z,9.26
2018-10-06T04:55:54.133Z,9.31
2018-10-06T04:56:54.189Z,9.32
2018-10-06T04:57:54.248Z,9.26
2018-10-06T04:58:54.305Z,9.31
2018-10-06T04:59:54.364Z,9.32
2018-10-06T05:00:54.422Z,9.26
2018-10-06T05:01:54.481Z,9.20
2018-10-06T05:02:54.537Z,9.23
2018-10-06T05:03:54.597Z,9.08
2018-10-06T05:04:54.653Z,9.06
2018-10-06T05:05:54.712Z,9.08
2018-10-06T05:06:54.769Z,9.03
2018-10-06T05:07:54.829Z,8.94
2018-10-06T05:08:54.885Z,8.94
2018-10-06T05:09:54.944Z,8.93
2018-10-06T05:10:55.024Z,8.93
2018-10-06T05:11:55.059Z,8.93
2018-10-06T05:12:55.117Z,8.86
2018-10-06T05:13:55.175Z,8.93
2018-10-06T05:14:55.234Z,8.97
2018-10-06T05:15:55.292Z,8.86
2018-10-06T05:16:55.348Z,8.79
2018-10-06T05:17:55.407Z,8.83
2018-10-06T05:18:55.465Z,8.82
2018-10-06T05:19:55.522Z,8.86
2018-10-06T05:20:55.581Z,8.96
2018-10-06T05:21:55.649Z,8.98
2018-10-06T05:22:55.697Z,9.15
2018-10-06T05:23:55.755Z,9.17
2018-10-06T05:24:55.815Z,9.17
2018-10-06T05:25:56.247Z,9.20
2018-10-06T05:26:55.928Z,9.17
2018-10-06T05:27:55.986Z,9.20
2018-10-06T05:28:56.045Z,9.19
2018-10-06T05:29:56.102Z,9.00
2018-10-06T05:30:56.160Z,9.12
2018-10-06T05:31:56.216Z,9.03
2018-10-06T05:32:56.277Z,9.03
2018-10-06T05:33:56.373Z,9.13
2018-10-06T05:34:56.391Z,9.12
2018-10-06T05:35:56.448Z,9.19
2018-10-06T05:36:56.506Z,9.27
2018-10-06T05:37:56.564Z,9.27
2018-10-06T05:38:56.622Z,9.31
2018-10-06T05:39:56.681Z,9.16
2018-10-06T05:40:56.739Z,9.12
2018-10-06T05:41:56.796Z,9.12
2018-10-06T05:42:56.858Z,9.16
2018-10-06T05:43:56.912Z,9.17
2018-10-06T05:44:56.969Z,9.20
2018-10-06T05:45:57.031Z,9.24
2018-10-06T05:46:57.085Z,9.27
2018-10-06T05:47:57.144Z,9.12
2018-10-06T05:48:57.204Z,9.13
2018-10-06T05:49:57.260Z,9.22
2018-10-06T05:50:57.320Z,9.26
2018-10-06T05:51:57.378Z,9.31
2018-10-06T05:52:57.434Z,9.34
2018-10-06T05:53:57.492Z,9.44
2018-10-06T05:54:57.550Z,9.31
2018-10-06T05:55:57.607Z,9.23
2018-10-06T05:56:57.664Z,9.31
2018-10-06T05:57:57.723Z,9.27
2018-10-06T05:58:57.828Z,9.15
2018-10-06T05:59:57.840Z,9.19
2018-10-06T06:00:57.897Z,9.22
2018-10-06T06:01:57.955Z,9.22
2018-10-06T06:02:58.015Z,9.34
2018-10-06T06:03:58.072Z,9.37
2018-10-06T06:04:58.129Z,9.27
2018-10-06T06:05:58.188Z,9.30
2018-10-06T06:06:58.246Z,9.40
2018-10-06T06:07:58.311Z,9.48
2018-10-06T06:08:58.361Z,9.53
2018-10-06T06:09:58.505Z,9.48
2018-10-06T06:10:58.629Z,9.30
2018-10-06T06:11:58.537Z,9.30
2018-10-06T06:12:58.594Z,9.27
2018-10-06T06:13:58.668Z,9.35
2018-10-06T06:14:58.711Z,9.38
2018-10-06T06:15:58.769Z,9.37
2018-10-06T06:16:58.826Z,9.30
2018-10-06T06:17:58.884Z,9.31
2018-10-06T06:18:58.946Z,9.24
2018-10-06T06:19:59.001Z,9.15
2018-10-06T06:20:59.079Z,9.20
2018-10-06T06:21:59.128Z,9.19
2018-10-06T06:22:59.175Z,9.20
2018-10-06T06:23:59.357Z,9.24
2018-10-06T06:24:59.338Z,9.23
2018-10-06T06:25:59.351Z,9.31
2018-10-06T06:26:59.409Z,9.40
2018-10-06T06:27:59.465Z,9.34
2018-10-06T06:28:59.533Z,9.48
2018-10-06T06:29:59.581Z,9.52
2018-10-06T06:30:59.640Z,9.53
2018-10-06T06:31:59.698Z,9.50
2018-10-06T06:32:59.755Z,9.55
2018-10-06T06:33:59.813Z,9.63
2018-10-06T06:34:59.873Z,9.67
2018-10-06T06:35:59.931Z,9.50
2018-10-06T06:36:59.988Z,9.41
2018-10-06T06:38:00.047Z,9.30
2018-10-06T06:39:00.106Z,9.24
2018-10-06T06:40:00.163Z,9.45
2018-10-06T06:41:00.222Z,9.53
2018-10-06T06:42:00.280Z,9.44
2018-10-06T06:43:00.338Z,9.48
2018-10-06T06:44:00.480Z,9.49
2018-10-06T06:45:00.455Z,9.60
2018-10-06T06:46:00.513Z,9.68
2018-10-06T06:47:00.588Z,9.71
2018-10-06T06:48:00.630Z,9.71
2018-10-06T06:49:00.687Z,9.75
2018-10-06T06:50:00.745Z,9.73
2018-10-06T06:51:01.055Z,9.78
2018-10-06T06:52:00.863Z,9.81
2018-10-06T06:53:00.938Z,9.68
2018-10-06T06:54:00.980Z,9.59
2018-10-06T06:55:01.074Z,9.37
2018-10-06T06:56:01.098Z,9.31
2018-10-06T06:57:01.154Z,9.38
2018-10-06T06:58:01.215Z,9.56
2018-10-06T06:59:01.271Z,9.40
2018-10-06T07:00:01.332Z,9.49
2018-10-06T07:01:01.425Z,9.52
2018-10-06T07:02:01.447Z,9.50
2018-10-06T07:03:01.507Z,9.59
2018-10-06T07:04:01.564Z,9.55
2018-10-06T07:05:01.622Z,9.48
2018-10-06T07:06:01.679Z,9.52
2018-10-06T07:07:01.738Z,9.60
2018-10-06T07:08:01.797Z,9.68
2018-10-06T07:09:01.853Z,9.71
2018-10-06T07:10:01.913Z,9.67
2018-10-06T07:11:01.974Z,9.74
2018-10-06T07:12:02.031Z,9.71
2018-10-06T07:13:02.088Z,9.83
2018-10-06T07:14:02.145Z,9.85
2018-10-06T07:15:02.205Z,9.91
2018-10-06T07:16:02.262Z,10.01
2018-10-06T07:17:02.322Z,9.99
2018-10-06T07:18:02.380Z,10.09
2018-10-06T07:19:02.441Z,10.07
2018-10-06T07:20:02.498Z,10.11
2018-10-06T07:21:02.555Z,10.07
2018-10-06T07:22:02.614Z,10.18
2018-10-06T07:23:02.673Z,10.10
2018-10-06T07:24:02.732Z,10.09
2018-10-06T07:25:02.792Z,10.14
2018-10-06T07:26:02.848Z,10.13
2018-10-06T07:27:02.907Z,10.17
2018-10-06T07:28:02.966Z,10.32
2018-10-06T07:29:03.029Z,10.32
2018-10-06T07:30:03.083Z,10.20
2018-10-06T07:31:03.141Z,10.29
2018-10-06T07:32:03.201Z,10.39
2018-10-06T07:33:03.262Z,10.38
2018-10-06T07:34:03.319Z,10.35
2018-10-06T07:35:03.380Z,10.32
2018-10-06T07:36:03.437Z,10.38
2018-10-06T07:37:03.496Z,10.32
2018-10-06T07:38:03.554Z,10.46
2018-10-06T07:39:03.615Z,10.54
2018-10-06T07:40:03.673Z,10.62
2018-10-06T07:41:03.731Z,10.70
2018-10-06T07:42:03.791Z,10.62
2018-10-06T07:43:03.850Z,10.75
2018-10-06T07:44:03.909Z,10.55
2018-10-06T07:45:04.040Z,10.65
2018-10-06T07:46:04.033Z,10.66
2018-10-06T07:47:04.100Z,10.65
2018-10-06T07:48:04.146Z,10.63
2018-10-06T07:49:04.204Z,10.76
2018-10-06T07:50:04.263Z,10.72
2018-10-06T07:51:04.323Z,10.86
2018-10-06T07:52:04.633Z,10.84
2018-10-06T07:53:04.476Z,10.84
2018-10-06T07:54:04.503Z,10.78
2018-10-06T07:55:04.560Z,10.83
2018-10-06T07:56:04.620Z,10.86
2018-10-06T07:57:04.678Z,10.93
2018-10-06T07:58:04.738Z,10.87
2018-10-06T07:59:04.801Z,10.93
2018-10-06T08:00:04.856Z,10.99
2018-10-06T08:01:04.914Z,10.99
2018-10-06T08:02:04.976Z,11.08
2018-10-06T08:03:05.037Z,11.05
2018-10-06T08:04:05.093Z,11.02
2018-10-06T08:05:05.152Z,11.03
2018-10-06T08:06:05.260Z,11.03
2018-10-06T08:07:05.270Z,11.05
2018-10-06T08:08:05.331Z,11.06
2018-10-06T08:09:05.389Z,11.09
2018-10-06T08:10:05.449Z,11.16
2018-10-06T08:11:05.511Z,11.08
2018-10-06T08:12:05.568Z,11.20
2018-10-06T08:13:05.628Z,11.27
2018-10-06T08:14:05.686Z,11.27
2018-10-06T08:15:05.745Z,11.28
2018-10-06T08:16:05.806Z,11.24
2018-10-06T08:17:05.866Z,11.41
2018-10-06T08:18:05.923Z,11.45
2018-10-06T08:19:05.982Z,11.42
2018-10-06T08:20:06.042Z,11.31
2018-10-06T08:21:06.100Z,11.26
2018-10-06T08:22:06.161Z,11.30
2018-10-06T08:23:06.220Z,11.38
2018-10-06T08:24:06.280Z,11.28
2018-10-06T08:25:06.339Z,11.45
2018-10-06T08:26:06.397Z,11.46
2018-10-06T08:27:06.461Z,11.48
2018-10-06T08:28:06.524Z,11.45
2018-10-06T08:29:06.576Z,11.57
2018-10-06T08:30:06.637Z,11.57
2018-10-06T08:31:06.704Z,11.49
2018-10-06T08:32:06.755Z,11.60
2018-10-06T08:33:06.815Z,11.48
2018-10-06T08:34:06.874Z,11.44
2018-10-06T08:35:06.936Z,11.59
2018-10-06T08:36:06.994Z,11.64
2018-10-06T08:37:07.053Z,11.64
2018-10-06T08:38:07.118Z,11.70
2018-10-06T08:39:07.173Z,11.75
2018-10-06T08:40:07.236Z,11.72
2018-10-06T08:41:07.291Z,11.64
2018-10-06T08:42:07.351Z,11.59
2018-10-06T08:43:07.411Z,11.57
2018-10-06T08:44:07.475Z,11.63
2018-10-06T08:45:07.532Z,11.63
2018-10-06T08:46:07.589Z,11.66
2018-10-06T08:47:07.650Z,11.70
2018-10-06T08:48:07.709Z,11.75
2018-10-06T08:49:07.769Z,11.81
2018-10-06T08:50:07.834Z,11.79
2018-10-06T08:51:07.891Z,11.77
2018-10-06T08:52:07.948Z,11.90
2018-10-06T08:53:08.007Z,11.94
2018-10-06T08:54:08.070Z,12.01
2018-10-06T08:55:08.126Z,12.04
2018-10-06T08:56:08.315Z,12.00
2018-10-06T08:57:08.244Z,12.15
2018-10-06T08:58:08.305Z,12.07
2018-10-06T08:59:08.363Z,12.25
2018-10-06T09:00:08.427Z,12.16
2018-10-06T09:01:08.483Z,12.29
2018-10-06T09:02:08.543Z,12.38
2018-10-06T09:03:08.602Z,12.44
2018-10-06T09:04:08.690Z,12.41
2018-10-06T09:05:08.720Z,12.61
2018-10-06T09:06:08.781Z,12.55
2018-10-06T09:07:08.839Z,12.61
2018-10-06T09:08:08.899Z,12.63
2018-10-06T09:09:08.958Z,12.73
2018-10-06T09:10:09.019Z,12.59
2018-10-06T09:11:09.078Z,12.74
2018-10-06T09:12:09.141Z,12.77
2018-10-06T09:13:09.198Z,12.80
2018-10-06T09:14:09.265Z,12.89
2018-10-06T09:15:09.315Z,12.98
2018-10-06T09:16:09.376Z,12.99
2018-10-06T09:17:09.797Z,13.09
2018-10-06T09:18:09.497Z,13.17
2018-10-06T09:19:09.557Z,13.44
2018-10-06T09:20:09.622Z,13.38
2018-10-06T09:21:09.672Z,13.41
2018-10-06T09:22:09.733Z,13.51
2018-10-06T09:23:09.807Z,13.51
2018-10-06T09:24:09.852Z,13.55
2018-10-06T09:25:09.911Z,13.57
2018-10-06T09:26:09.970Z,13.69
2018-10-06T09:27:10.033Z,13.71
2018-10-06T09:28:10.127Z,13.69
2018-10-06T09:29:10.151Z,13.73
2018-10-06T09:30:10.217Z,13.90
2018-10-06T09:31:10.270Z,13.83
2018-10-06T09:32:10.331Z,13.76
2018-10-06T09:33:10.909Z,13.87
2018-10-06T09:34:10.450Z,14.02
2018-10-06T09:35:10.517Z,14.11
2018-10-06T09:36:10.571Z,14.16
2018-10-06T09:37:10.630Z,14.21
2018-10-06T09:38:10.689Z,14.21
2018-10-06T09:39:10.749Z,14.24
2018-10-06T09:40:10.810Z,14.34
2018-10-06T09:41:10.871Z,14.46
2018-10-06T09:42:11.082Z,14.48
2018-10-06T09:43:10.989Z,14.66
2018-10-06T09:44:11.062Z,14.64
2018-10-06T09:45:11.115Z,14.82
2018-10-06T09:46:11.170Z,14.86
2018-10-06T09:47:11.231Z,14.87
2018-10-06T09:48:11.379Z,15.00
2018-10-06T09:49:11.351Z,15.07
2018-10-06T09:50:11.430Z,15.25
2018-10-06T09:51:11.474Z,15.38
2018-10-06T09:52:11.533Z,15.38
2018-10-06T09:53:11.594Z,15.38
2018-10-06T09:54:11.825Z,15.49
2018-10-06T09:55:11.715Z,15.52
2018-10-06T09:56:11.775Z,15.64
2018-10-06T09:57:11.835Z,15.62
2018-10-06T09:58:11.895Z,15.78
2018-10-06T09:59:11.957Z,15.89
2018-10-06T10:00:12.017Z,15.93
2018-10-06T10:01:12.077Z,15.92
2018-10-06T10:02:12.138Z,16.06
2018-10-06T10:03:12.200Z,16.16
2018-10-06T10:04:12.260Z,16.33
2018-10-06T10:05:12.362Z,16.40
2018-10-06T10:06:12.381Z,16.45
2018-10-06T10:07:12.442Z,16.59
2018-10-06T10:08:12.516Z,16.67
2018-10-06T10:09:12.573Z,16.78
2018-10-06T10:10:12.626Z,16.72
2018-10-06T10:11:12.687Z,16.84
2018-10-06T10:12:12.748Z,16.77
2018-10-06T10:13:12.808Z,16.85
2018-10-06T10:14:12.877Z,16.91
2018-10-06T10:15:12.968Z,16.98
2018-10-06T10:16:12.993Z,17.10
2018-10-06T10:17:13.194Z,17.22
2018-10-06T10:18:13.253Z,17.24
2018-10-06T10:19:13.176Z,17.33
2018-10-06T10:20:13.239Z,17.40
2018-10-06T10:21:13.300Z,17.49
2018-10-06T10:22:13.405Z,17.63
2018-10-06T10:23:13.470Z,17.63
2018-10-06T10:24:13.485Z,17.58
2018-10-06T10:25:13.546Z,17.71
2018-10-06T10:26:13.607Z,17.77
2018-10-06T10:27:13.669Z,17.87
2018-10-06T10:28:13.779Z,17.94
2018-10-06T10:29:13.792Z,17.96
2018-10-06T10:30:13.855Z,18.11
2018-10-06T10:31:13.917Z,18.17
2018-10-06T10:32:13.980Z,18.26
2018-10-06T10:33:14.041Z,18.32
2018-10-06T10:34:14.356Z,18.32
2018-10-06T10:35:14.166Z,18.49
2018-10-06T10:36:14.229Z,18.42
2018-10-06T10:37:14.349Z,18.60
2018-10-06T10:38:14.358Z,18.62
2018-10-06T10:39:14.426Z,18.72
2018-10-06T10:40:14.490Z,18.82
2018-10-06T10:41:14.541Z,18.96
2018-10-06T10:42:14.604Z,19.12
2018-10-06T10:43:14.668Z,19.16
2018-10-06T10:44:14.786Z,19.32
2018-10-06T10:45:14.793Z,19.40
2018-10-06T10:46:14.855Z,19.58
2018-10-06T10:47:14.922Z,19.65
2018-10-06T10:48:15.072Z,19.85
2018-10-06T10:49:15.049Z,20.02
2018-10-06T10:50:15.108Z,20.33
2018-10-06T10:51:15.175Z,20.40
2018-10-06T10:52:15.235Z,20.34
2018-10-06T10:53:15.296Z,20.53
2018-10-06T10:54:15.361Z,20.78
2018-10-06T10:55:15.424Z,21.09
2018-10-06T10:56:15.488Z,21.13
2018-10-06T10:57:15.550Z,21.40
2018-10-06T10:58:15.615Z,21.79
2018-10-06T10:59:15.679Z,22.12
2018-10-06T11:00:15.864Z,22.45
2018-10-06T11:01:15.893Z,22.88
2018-10-06T11:02:15.870Z,23.31
2018-10-06T11:03:15.936Z,23.87
2018-10-06T11:04:16.001Z,24.26
2018-10-06T11:05:16.066Z,24.45
2018-10-06T11:06:16.131Z,24.33
2018-10-06T11:07:16.197Z,24.39
2018-10-06T11:08:16.263Z,24.94
2018-10-06T11:09:16.327Z,25.23
2018-10-06T11:10:16.393Z,25.66
2018-10-06T11:11:16.516Z,25.81
2018-10-06T11:12:16.526Z,25.67
2018-10-06T11:13:16.591Z,25.71
2018-10-06T11:14:16.659Z,26.13
2018-10-06T11:15:16.724Z,26.11
2018-10-06T11:16:16.792Z,26.34
2018-10-06T11:17:16.983Z,26.50
2018-10-06T11:18:16.924Z,26.21
2018-10-06T11:19:16.991Z,26.13
2018-10-06T11:20:17.070Z,26.17
2018-10-06T11:21:17.125Z,26.17
2018-10-06T11:22:17.195Z,26.29
2018-10-06T11:23:17.260Z,26.00
2018-10-06T11:24:17.342Z,26.09
2018-10-06T11:25:17.394Z,25.85
2018-10-06T11:26:17.463Z,25.97
2018-10-06T11:27:17.530Z,25.82
2018-10-06T11:28:17.599Z,26.19
2018-10-06T11:29:17.665Z,26.11
2018-10-06T11:30:17.732Z,26.12
2018-10-06T11:31:17.800Z,25.67
2018-10-06T11:32:17.868Z,25.96
2018-10-06T11:33:17.936Z,26.21
2018-10-06T11:34:18.005Z,26.16
2018-10-06T11:35:18.071Z,26.08
2018-10-06T11:36:18.140Z,26.46
2018-10-06T11:37:18.289Z,26.54
2018-10-06T11:38:18.363Z,26.59
2018-10-06T11:39:18.345Z,26.09
2018-10-06T11:40:18.411Z,26.44
2018-10-06T11:41:18.479Z,26.32
2018-10-06T11:42:18.546Z,26.04
2018-10-06T11:43:18.615Z,25.89
2018-10-06T11:44:18.684Z,25.39
2018-10-06T11:45:18.751Z,25.81
2018-10-06T11:46:18.821Z,25.90
2018-10-06T11:47:18.887Z,25.64
2018-10-06T11:48:18.955Z,25.67
2018-10-06T11:49:19.022Z,25.41
2018-10-06T11:50:19.171Z,25.39
2018-10-06T11:51:19.549Z,25.59
2018-10-06T11:52:19.233Z,25.86
2018-10-06T11:53:19.294Z,26.16
2018-10-06T11:54:19.362Z,26.35
2018-10-06T11:55:19.431Z,26.16
2018-10-06T11:56:19.873Z,26.21
2018-10-06T11:57:19.566Z,26.13
2018-10-06T11:58:19.633Z,26.59
2018-10-06T11:59:19.700Z,26.49
2018-10-06T12:00:19.942Z,26.13
2018-10-06T12:01:20.184Z,25.89
2018-10-06T12:02:19.904Z,25.61
2018-10-06T12:03:19.973Z,25.31
2018-10-06T12:04:20.042Z,24.79
2018-10-06T12:05:20.108Z,24.84
2018-10-06T12:06:20.179Z,24.93
2018-10-06T12:07:20.244Z,25.17
2018-10-06T12:08:20.312Z,24.87
2018-10-06T12:09:20.378Z,25.05
2018-10-06T12:10:20.453Z,25.36
2018-10-06T12:11:20.513Z,25.11
2018-10-06T12:12:20.581Z,24.93
2018-10-06T12:13:20.647Z,24.86
2018-10-06T12:14:20.715Z,25.02
2018-10-06T12:15:20.783Z,25.17
2018-10-06T12:16:20.848Z,25.35
2018-10-06T12:17:20.915Z,25.20
2018-10-06T12:18:20.989Z,25.30
2018-10-06T12:19:21.052Z,25.02
2018-10-06T12:20:21.147Z,24.93
2018-10-06T12:21:21.185Z,24.94
2018-10-06T12:22:21.252Z,25.02
2018-10-06T12:23:21.319Z,25.29
2018-10-06T12:24:21.387Z,24.83
2018-10-06T12:25:21.452Z,24.23
2018-10-06T12:26:21.519Z,24.08
2018-10-06T12:27:21.587Z,24.08
2018-10-06T12:28:21.653Z,24.02
2018-10-06T12:29:21.719Z,23.93
2018-10-06T12:30:21.787Z,23.90
2018-10-06T12:31:21.854Z,23.89
2018-10-06T12:32:21.920Z,23.64
2018-10-06T12:33:21.987Z,23.47
2018-10-06T12:34:22.056Z,23.57
2018-10-06T12:35:22.206Z,23.54
2018-10-06T12:36:22.186Z,23.39
2018-10-06T12:37:22.251Z,23.64
2018-10-06T12:38:22.318Z,23.45
2018-10-06T12:39:22.384Z,23.45
2018-10-06T12:40:22.451Z,23.64
2018-10-06T12:41:22.517Z,23.87
2018-10-06T12:42:22.582Z,23.96
2018-10-06T12:43:22.649Z,23.93
2018-10-06T12:44:22.715Z,24.12
2018-10-06T12:45:22.780Z,24.42
2018-10-06T12:46:22.847Z,24.44
2018-10-06T12:47:22.914Z,24.45
2018-10-06T12:48:22.979Z,24.45
2018-10-06T12:49:23.045Z,24.48
2018-10-06T12:50:23.111Z,24.39
2018-10-06T12:51:23.187Z,24.49
2018-10-06T12:52:23.245Z,24.68
2018-10-06T12:53:23.794Z,24.67
2018-10-06T12:54:23.376Z,24.93
2018-10-06T12:55:23.444Z,24.90
2018-10-06T12:56:23.535Z,25.27
2018-10-06T12:57:23.575Z,24.87
2018-10-06T12:58:23.642Z,24.90
2018-10-06T12:59:23.711Z,24.93
2018-10-06T13:00:23.776Z,25.26
2018-10-06T13:01:23.841Z,25.46
2018-10-06T13:02:23.908Z,25.36
2018-10-06T13:03:23.975Z,25.11